createdAt,value
2022-11-05T00:00:52.591Z,96.75
2022-11-05T00:01:53.563Z,96.85
2022-11-05T00:02:52.673Z,96.91
2022-11-05T00:03:52.576Z,96.91
2022-11-05T00:04:52.551Z,96.70
2022-11-05T00:05:52.712Z,95.94
2022-11-05T00:06:52.504Z,94.92
2022-11-05T00:07:52.616Z,94.36
2022-11-05T00:08:52.569Z,94.26
2022-11-05T00:09:52.474Z,94.56
2022-11-05T00:10:52.661Z,95.59
2022-11-05T00:11:52.445Z,96.72
2022-11-05T00:12:52.655Z,97.38
2022-11-05T00:13:52.692Z,97.99
2022-11-05T00:14:52.408Z,98.41
2022-11-05T00:15:53.434Z,98.92
2022-11-05T00:16:52.496Z,99.33
2022-11-05T00:17:52.379Z,99.68
2022-11-05T00:18:52.545Z,99.99
2022-11-05T00:19:53.297Z,99.99
2022-11-05T00:20:52.393Z,99.99
2022-11-05T00:21:53.585Z,99.99
2022-11-05T00:22:52.337Z,99.99
2022-11-05T00:23:52.492Z,99.99
2022-11-05T00:24:52.277Z,99.99
2022-11-05T00:25:52.365Z,99.99
2022-11-05T00:26:52.397Z,99.99
2022-11-05T00:27:52.274Z,99.99
2022-11-05T00:28:52.705Z,99.99
2022-11-05T00:29:52.305Z,99.99
2022-11-05T00:30:52.217Z,99.99
2022-11-05T00:31:52.433Z,99.99
2022-11-05T00:32:52.301Z,99.99
2022-11-05T00:33:52.232Z,99.99
2022-11-05T00:34:52.351Z,99.99
2022-11-05T00:35:52.276Z,99.99
2022-11-05T00:36:52.148Z,99.99
2022-11-05T00:37:52.206Z,99.99
2022-11-05T00:38:52.150Z,99.99
2022-11-05T00:39:52.296Z,99.99
2022-11-05T00:40:52.333Z,99.99
2022-11-05T00:41:52.121Z,99.99
2022-11-05T00:42:52.242Z,99.99
2022-11-05T00:43:52.281Z,99.99
2022-11-05T00:44:52.071Z,99.99
2022-11-05T00:45:52.288Z,99.99
2022-11-05T00:46:55.911Z,99.99
2022-11-05T00:47:52.048Z,99.99
2022-11-05T00:48:52.151Z,99.99
2022-11-05T00:49:52.284Z,99.99
2022-11-05T00:50:52.239Z,99.99
2022-11-05T00:51:52.022Z,99.99
2022-11-05T00:52:52.168Z,99.99
2022-11-05T00:53:52.884Z,99.99
2022-11-05T00:54:52.054Z,99.99
2022-11-05T00:55:52.128Z,99.99
2022-11-05T00:56:52.055Z,99.99
2022-11-05T00:57:51.978Z,99.99
2022-11-05T00:58:51.945Z,99.99
2022-11-05T00:59:52.913Z,99.99
2022-11-05T01:00:52.988Z,99.99
2022-11-05T01:01:51.989Z,99.99
2022-11-05T01:02:52.015Z,99.99
2022-11-05T01:03:52.205Z,99.99
2022-11-05T01:04:51.886Z,99.99
2022-11-05T01:05:53.091Z,99.99
2022-11-05T01:06:51.903Z,99.99
2022-11-05T01:07:51.905Z,99.99
2022-11-05T01:08:51.900Z,99.99
2022-11-05T01:09:51.778Z,99.99
2022-11-05T01:10:52.123Z,99.99
2022-11-05T01:11:51.822Z,99.99
2022-11-05T01:12:51.742Z,99.99
2022-11-05T01:13:52.814Z,99.99
2022-11-05T01:14:51.986Z,99.99
2022-11-05T01:15:51.756Z,99.99
2022-11-05T01:16:52.088Z,99.99
2022-11-05T01:17:51.900Z,99.99
2022-11-05T01:18:51.872Z,99.99
2022-11-05T01:19:51.728Z,99.99
2022-11-05T01:20:51.713Z,99.99
2022-11-05T01:21:51.813Z,99.99
2022-11-05T01:22:51.778Z,99.99
2022-11-05T01:23:51.694Z,99.99
2022-11-05T01:24:52.821Z,99.99
2022-11-05T01:25:51.622Z,99.99
2022-11-05T01:26:51.823Z,99.99
2022-11-05T01:27:51.683Z,99.99
2022-11-05T01:28:51.695Z,99.99
2022-11-05T01:29:51.711Z,99.99
2022-11-05T01:30:51.735Z,99.99
2022-11-05T01:31:51.535Z,99.99
2022-11-05T01:32:51.675Z,99.99
2022-11-05T01:33:51.515Z,99.99
2022-11-05T01:34:51.706Z,99.99
2022-11-05T01:35:51.666Z,99.99
2022-11-05T01:36:51.524Z,99.99
2022-11-05T01:37:51.509Z,99.99
2022-11-05T01:38:51.599Z,99.99
2022-11-05T01:39:51.449Z,99.99
2022-11-05T01:40:51.699Z,99.99
2022-11-05T01:41:51.676Z,99.99
2022-11-05T01:42:54.382Z,99.99
2022-11-05T01:43:51.520Z,99.99
2022-11-05T01:44:51.381Z,99.99
2022-11-05T01:45:51.600Z,99.99
2022-11-05T01:46:51.687Z,99.99
2022-11-05T01:47:51.883Z,99.99
2022-11-05T01:48:51.527Z,99.99
2022-11-05T01:49:51.535Z,99.99
2022-11-05T01:50:51.361Z,99.99
2022-11-05T01:51:51.453Z,99.99
2022-11-05T01:52:51.313Z,99.99
2022-11-05T01:53:51.396Z,99.99
2022-11-05T01:54:51.447Z,99.99
2022-11-05T01:55:51.443Z,99.99
2022-11-05T01:56:51.437Z,99.99
2022-11-05T01:57:51.546Z,99.99
2022-11-05T01:58:51.314Z,99.99
2022-11-05T01:59:51.337Z,99.99
2022-11-05T02:00:51.411Z,99.99
2022-11-05T02:01:51.323Z,99.99
2022-11-05T02:02:51.564Z,99.99
2022-11-05T02:03:51.316Z,99.99
2022-11-05T02:04:51.213Z,99.99
2022-11-05T02:05:51.528Z,99.99
2022-11-05T02:06:51.330Z,99.99
2022-11-05T02:07:51.328Z,99.99
2022-11-05T02:08:51.252Z,99.99
2022-11-05T02:09:51.173Z,99.99
2022-11-05T02:10:51.109Z,99.99
2022-11-05T02:11:51.186Z,99.99
2022-11-05T02:12:51.074Z,99.99
2022-11-05T02:13:51.126Z,99.99
2022-11-05T02:14:51.193Z,99.99
2022-11-05T02:15:51.826Z,99.99
2022-11-05T02:16:51.158Z,99.99
2022-11-05T02:17:51.247Z,99.99
2022-11-05T02:18:51.240Z,99.99
2022-11-05T02:19:51.073Z,99.99
2022-11-05T02:20:52.286Z,99.99
2022-11-05T02:21:51.194Z,99.99
2022-11-05T02:22:51.380Z,99.99
2022-11-05T02:23:50.993Z,99.99
2022-11-05T02:24:51.168Z,99.99
2022-11-05T02:25:51.249Z,99.99
2022-11-05T02:26:51.071Z,99.99
2022-11-05T02:27:50.990Z,99.99
2022-11-05T02:28:51.103Z,99.99
2022-11-05T02:29:51.172Z,99.99
2022-11-05T02:30:51.067Z,99.99
2022-11-05T02:31:51.060Z,99.99
2022-11-05T02:32:50.838Z,99.99
2022-11-05T02:33:50.996Z,99.99
2022-11-05T02:34:50.884Z,99.99
2022-11-05T02:35:50.813Z,99.99
2022-11-05T02:36:50.910Z,99.99
2022-11-05T02:37:50.927Z,99.99
2022-11-05T02:38:50.782Z,99.99
2022-11-05T02:39:50.864Z,99.99
2022-11-05T02:40:50.822Z,99.99
2022-11-05T02:41:50.794Z,99.99
2022-11-05T02:42:50.887Z,99.99
2022-11-05T02:43:50.872Z,99.99
2022-11-05T02:44:50.804Z,99.99
2022-11-05T02:45:50.896Z,99.99
2022-11-05T02:46:50.935Z,99.99
2022-11-05T02:47:50.688Z,99.99
2022-11-05T02:48:50.727Z,99.99
2022-11-05T02:49:50.689Z,99.99
2022-11-05T02:50:52.120Z,99.99
2022-11-05T02:51:50.763Z,99.99
2022-11-05T02:52:50.668Z,99.99
2022-11-05T02:53:50.716Z,99.99
2022-11-05T02:54:50.671Z,99.99
2022-11-05T02:55:50.729Z,99.99
2022-11-05T02:56:51.241Z,99.99
2022-11-05T02:57:51.149Z,99.99
2022-11-05T02:58:50.563Z,99.99
2022-11-05T02:59:50.777Z,99.99
2022-11-05T03:00:50.717Z,99.99
2022-11-05T03:01:50.779Z,99.99
2022-11-05T03:02:50.939Z,99.99
2022-11-05T03:03:50.488Z,99.99
2022-11-05T03:04:50.633Z,99.99
2022-11-05T03:05:50.616Z,99.99
2022-11-05T03:06:50.495Z,99.99
2022-11-05T03:07:50.601Z,99.99
2022-11-05T03:08:50.600Z,99.99
2022-11-05T03:09:50.470Z,99.99
2022-11-05T03:10:50.726Z,99.99
2022-11-05T03:11:50.599Z,99.99
2022-11-05T03:12:50.515Z,99.99
2022-11-05T03:13:50.607Z,99.99
2022-11-05T03:14:50.656Z,99.99
2022-11-05T03:15:50.402Z,99.99
2022-11-05T03:16:50.515Z,99.99
2022-11-05T03:17:50.678Z,99.99
2022-11-05T03:18:50.363Z,99.99
2022-11-05T03:19:50.402Z,99.99
2022-11-05T03:20:50.356Z,99.99
2022-11-05T03:21:50.569Z,99.99
2022-11-05T03:22:50.575Z,99.99
2022-11-05T03:23:50.252Z,99.99
2022-11-05T03:24:50.278Z,99.99
2022-11-05T03:25:51.390Z,99.99
2022-11-05T03:26:50.288Z,99.99
2022-11-05T03:27:50.271Z,99.99
2022-11-05T03:28:50.828Z,99.99
2022-11-05T03:29:50.210Z,99.99
2022-11-05T03:30:50.400Z,99.99
2022-11-05T03:31:50.298Z,99.99
2022-11-05T03:32:50.237Z,99.99
2022-11-05T03:33:50.332Z,99.99
2022-11-05T03:34:50.331Z,99.99
2022-11-05T03:35:50.122Z,99.99
2022-11-05T03:36:50.272Z,99.99
2022-11-05T03:37:50.358Z,99.99
2022-11-05T03:38:50.125Z,99.99
2022-11-05T03:39:50.177Z,99.99
2022-11-05T03:40:50.265Z,99.99
2022-11-05T03:41:50.057Z,99.99
2022-11-05T03:42:50.176Z,99.99
2022-11-05T03:43:50.314Z,99.99
2022-11-05T03:44:50.733Z,99.99
2022-11-05T03:45:51.507Z,99.99
2022-11-05T03:46:50.887Z,99.99
2022-11-05T03:47:50.093Z,99.99
2022-11-05T03:48:50.195Z,99.99
2022-11-05T03:49:50.276Z,99.99
2022-11-05T03:50:49.989Z,99.99
2022-11-05T03:51:50.230Z,99.99
2022-11-05T03:52:50.727Z,99.99
2022-11-05T03:53:50.237Z,99.99
2022-11-05T03:54:50.043Z,99.99
2022-11-05T03:55:49.955Z,99.99
2022-11-05T03:56:50.082Z,99.99
2022-11-05T03:57:50.114Z,99.99
2022-11-05T03:58:52.346Z,99.99
2022-11-05T03:59:49.889Z,99.99
2022-11-05T04:00:49.980Z,99.99
2022-11-05T04:01:49.951Z,99.99
2022-11-05T04:02:51.112Z,99.99
2022-11-05T04:03:49.902Z,99.99
2022-11-05T04:04:49.807Z,99.99
2022-11-05T04:05:49.960Z,99.99
2022-11-05T04:06:49.786Z,99.99
2022-11-05T04:07:50.007Z,99.99
2022-11-05T04:08:50.316Z,99.99
2022-11-05T04:09:49.869Z,99.99
2022-11-05T04:10:49.829Z,99.99
2022-11-05T04:11:49.796Z,99.99
2022-11-05T04:12:49.766Z,99.99
2022-11-05T04:13:49.829Z,99.99
2022-11-05T04:14:49.957Z,99.99
2022-11-05T04:15:49.665Z,99.99
2022-11-05T04:16:49.806Z,99.99
2022-11-05T04:17:49.664Z,99.99
2022-11-05T04:18:49.677Z,99.99
2022-11-05T04:19:50.154Z,99.99
2022-11-05T04:20:49.625Z,99.99
2022-11-05T04:21:49.816Z,99.99
2022-11-05T04:22:49.804Z,99.99
2022-11-05T04:23:50.566Z,99.99
2022-11-05T04:24:49.709Z,99.99
2022-11-05T04:25:49.627Z,99.99
2022-11-05T04:26:49.568Z,99.99
2022-11-05T04:27:49.543Z,99.99
2022-11-05T04:28:50.128Z,99.99
2022-11-05T04:29:49.539Z,99.99
2022-11-05T04:30:49.521Z,99.99
2022-11-05T04:31:49.520Z,99.99
2022-11-05T04:32:49.495Z,99.99
2022-11-05T04:33:49.571Z,99.99
2022-11-05T04:34:50.398Z,99.99
2022-11-05T04:35:49.496Z,99.99
2022-11-05T04:36:49.678Z,99.99
2022-11-05T04:37:49.532Z,99.99
2022-11-05T04:38:49.432Z,99.99
2022-11-05T04:39:49.998Z,99.99
2022-11-05T04:40:49.634Z,99.99
2022-11-05T04:41:49.872Z,99.99
2022-11-05T04:42:50.464Z,99.99
2022-11-05T04:43:50.223Z,99.99
2022-11-05T04:44:49.442Z,99.99
2022-11-05T04:45:49.538Z,99.99
2022-11-05T04:46:49.557Z,99.99
2022-11-05T04:47:50.348Z,99.99
2022-11-05T04:48:49.494Z,99.99
2022-11-05T04:49:49.539Z,99.99
2022-11-05T04:50:49.313Z,99.99
2022-11-05T04:51:49.418Z,99.99
2022-11-05T04:52:49.264Z,99.99
2022-11-05T04:53:49.326Z,99.99
2022-11-05T04:54:49.355Z,99.99
2022-11-05T04:55:49.439Z,99.99
2022-11-05T04:56:49.419Z,99.99
2022-11-05T04:57:49.358Z,99.99
2022-11-05T04:58:49.257Z,99.99
2022-11-05T04:59:49.265Z,99.99
2022-11-05T05:00:49.421Z,99.99
2022-11-05T05:01:49.213Z,99.99
2022-11-05T05:02:49.943Z,99.99
2022-11-05T05:03:49.224Z,99.99
2022-11-05T05:04:49.124Z,99.99
2022-11-05T05:05:52.973Z,99.99
2022-11-05T05:06:49.197Z,99.99
2022-11-05T05:07:49.809Z,99.99
2022-11-05T05:08:49.077Z,99.99
2022-11-05T05:09:49.212Z,99.99
2022-11-05T05:10:49.283Z,99.99
2022-11-05T05:11:49.090Z,99.99
2022-11-05T05:12:49.090Z,99.99
2022-11-05T05:13:49.027Z,99.99
2022-11-05T05:14:49.137Z,99.99
2022-11-05T05:15:49.116Z,99.99
2022-11-05T05:16:49.171Z,99.99
2022-11-05T05:17:49.218Z,99.99
2022-11-05T05:18:49.091Z,99.99
2022-11-05T05:19:49.054Z,99.99
2022-11-05T05:20:49.045Z,99.99
2022-11-05T05:21:49.015Z,99.99
2022-11-05T05:22:48.981Z,99.99
2022-11-05T05:23:49.038Z,99.99
2022-11-05T05:24:52.765Z,99.99
2022-11-05T05:25:49.098Z,99.99
2022-11-05T05:26:48.974Z,99.99
2022-11-05T05:27:48.866Z,99.99
2022-11-05T05:28:49.860Z,99.99
2022-11-05T05:29:49.389Z,99.99
2022-11-05T05:30:48.850Z,99.99
2022-11-05T05:31:48.988Z,99.99
2022-11-05T05:32:48.906Z,99.99
2022-11-05T05:33:48.843Z,99.99
2022-11-05T05:34:49.721Z,99.99
2022-11-05T05:35:48.839Z,99.99
2022-11-05T05:36:49.363Z,99.99
2022-11-05T05:37:48.961Z,99.99
2022-11-05T05:38:49.046Z,99.99
2022-11-05T05:39:48.770Z,99.99
2022-11-05T05:40:48.873Z,99.99
2022-11-05T05:41:48.803Z,99.99
2022-11-05T05:42:49.371Z,99.99
2022-11-05T05:43:48.725Z,99.99
2022-11-05T05:44:48.818Z,99.99
2022-11-05T05:45:48.705Z,99.99
2022-11-05T05:46:48.868Z,99.99
2022-11-05T05:47:48.742Z,99.99
2022-11-05T05:48:48.633Z,99.99
2022-11-05T05:49:48.796Z,99.99
2022-11-05T05:50:48.808Z,99.99
2022-11-05T05:51:48.619Z,99.99
2022-11-05T05:54:04.626Z,99.99
2022-11-05T05:55:05.729Z,99.99
2022-11-05T05:56:05.710Z,99.99
2022-11-05T05:57:05.625Z,99.99
2022-11-05T05:58:05.624Z,99.99
2022-11-05T05:59:05.801Z,99.99
2022-11-05T06:00:05.577Z,99.99
2022-11-05T06:01:06.338Z,99.99
2022-11-05T06:02:05.679Z,99.99
2022-11-05T06:03:05.593Z,99.99
2022-11-05T06:04:05.727Z,99.99
2022-11-05T06:05:05.584Z,99.99
2022-11-05T06:06:05.572Z,99.99
2022-11-05T06:07:05.737Z,99.99
2022-11-05T06:08:05.541Z,99.99
2022-11-05T06:09:05.650Z,99.99
2022-11-05T06:10:05.708Z,99.99
2022-11-05T06:11:05.760Z,99.99
2022-11-05T06:12:05.464Z,99.99
2022-11-05T06:13:05.592Z,99.99
2022-11-05T06:14:05.420Z,99.99
2022-11-05T06:15:06.296Z,99.99
2022-11-05T06:16:05.627Z,99.99
2022-11-05T06:17:05.509Z,99.99
2022-11-05T06:18:05.540Z,99.99
2022-11-05T06:19:05.587Z,99.99
2022-11-05T06:20:05.425Z,99.99
2022-11-05T06:21:05.433Z,99.99
2022-11-05T06:22:05.466Z,99.99
2022-11-05T06:23:05.519Z,99.99
2022-11-05T06:24:06.288Z,99.99
2022-11-05T06:25:05.409Z,99.99
2022-11-05T06:26:05.297Z,99.99
2022-11-05T06:27:05.390Z,99.99
2022-11-05T06:28:06.330Z,99.99
2022-11-05T06:29:11.223Z,99.99
2022-11-05T06:30:11.316Z,99.99
2022-11-05T06:31:11.207Z,99.99
2022-11-05T06:32:05.287Z,99.99
2022-11-05T06:33:05.373Z,99.99
2022-11-05T06:34:05.302Z,99.99
2022-11-05T06:35:05.226Z,99.99
2022-11-05T06:36:05.378Z,99.99
2022-11-05T06:37:05.395Z,99.99
2022-11-05T06:38:05.181Z,99.99
2022-11-05T06:39:05.306Z,99.99
2022-11-05T06:40:05.150Z,99.99
2022-11-05T06:41:10.306Z,99.99
2022-11-05T06:42:18.064Z,99.99
2022-11-05T06:43:05.409Z,99.99
2022-11-05T06:44:05.255Z,99.99
2022-11-05T06:45:05.185Z,99.99
2022-11-05T06:46:05.062Z,99.99
2022-11-05T06:47:05.222Z,99.99
2022-11-05T06:48:05.215Z,99.99
2022-11-05T06:49:05.038Z,99.99
2022-11-05T06:50:05.200Z,99.99
2022-11-05T06:51:05.038Z,99.99
2022-11-05T06:52:04.991Z,99.99
2022-11-05T06:53:05.116Z,99.99
2022-11-05T06:54:05.222Z,99.99
2022-11-05T06:55:05.654Z,99.99
2022-11-05T06:56:05.168Z,99.99
2022-11-05T06:57:05.041Z,99.99
2022-11-05T06:58:04.952Z,99.99
2022-11-05T06:59:05.820Z,99.99
2022-11-05T07:00:07.990Z,99.99
2022-11-05T07:01:04.985Z,99.99
2022-11-05T07:02:05.268Z,99.99
2022-11-05T07:03:05.034Z,99.99
2022-11-05T07:04:04.858Z,99.99
2022-11-05T07:05:05.147Z,99.99
2022-11-05T07:06:05.032Z,99.99
2022-11-05T07:07:04.814Z,99.99
2022-11-05T07:08:05.076Z,99.99
2022-11-05T07:09:05.123Z,99.99
2022-11-05T07:10:05.764Z,99.99
2022-11-05T07:11:07.169Z,99.99
2022-11-05T07:12:04.901Z,99.99
2022-11-05T07:13:08.027Z,99.99
2022-11-05T07:14:04.767Z,99.99
2022-11-05T07:15:04.901Z,99.99
2022-11-05T07:16:04.970Z,99.99
2022-11-05T07:17:05.249Z,99.99
2022-11-05T07:18:04.739Z,99.99
2022-11-05T07:19:04.784Z,99.99
2022-11-05T07:20:04.800Z,99.99
2022-11-05T07:21:06.151Z,99.99
2022-11-05T07:22:04.765Z,99.99
2022-11-05T07:23:04.708Z,99.99
2022-11-05T07:24:05.657Z,99.99
2022-11-05T07:25:04.931Z,99.99
2022-11-05T07:26:04.880Z,99.99
2022-11-05T07:27:04.663Z,99.99
2022-11-05T07:28:04.881Z,99.99
2022-11-05T07:29:04.734Z,99.99
2022-11-05T07:30:04.608Z,99.99
2022-11-05T07:31:05.177Z,99.99
2022-11-05T07:32:05.250Z,99.99
2022-11-05T07:33:06.340Z,99.99
2022-11-05T07:34:05.328Z,99.99
2022-11-05T07:35:04.561Z,99.99
2022-11-05T07:36:04.537Z,99.99
2022-11-05T07:37:05.314Z,99.99
2022-11-05T07:38:04.796Z,99.99
2022-11-05T07:39:04.570Z,99.99
2022-11-05T07:40:04.808Z,99.99
2022-11-05T07:41:04.769Z,99.99
2022-11-05T07:42:04.592Z,99.99
2022-11-05T07:43:04.811Z,99.99
2022-11-05T07:44:04.702Z,99.99
2022-11-05T07:45:04.630Z,99.99
2022-11-05T07:46:04.404Z,99.99
2022-11-05T07:47:04.606Z,99.99
2022-11-05T07:48:04.459Z,99.99
2022-11-05T07:49:04.351Z,99.99
2022-11-05T07:50:04.563Z,99.99
2022-11-05T07:51:06.255Z,99.99
2022-11-05T07:52:04.337Z,99.99
2022-11-05T07:53:04.602Z,99.99
2022-11-05T07:54:04.414Z,99.99
2022-11-05T07:55:04.286Z,99.99
2022-11-05T07:56:05.186Z,99.99
2022-11-05T07:57:04.571Z,99.99
2022-11-05T07:58:04.253Z,99.99
2022-11-05T07:59:05.348Z,99.99
2022-11-05T08:00:04.457Z,99.99
2022-11-05T08:01:05.352Z,99.99
2022-11-05T08:02:04.610Z,99.99
2022-11-05T08:03:08.240Z,99.99
2022-11-05T08:04:05.291Z,99.99
2022-11-05T08:05:05.208Z,99.99
2022-11-05T08:06:04.177Z,99.99
2022-11-05T08:07:04.697Z,99.99
2022-11-05T08:08:04.235Z,99.99
2022-11-05T08:09:04.136Z,99.99
2022-11-05T08:10:04.315Z,99.99
2022-11-05T08:11:04.279Z,99.99
2022-11-05T08:12:04.112Z,99.99
2022-11-05T08:13:04.292Z,99.99
2022-11-05T08:14:04.348Z,99.99
2022-11-05T08:15:04.182Z,99.99
2022-11-05T08:16:04.340Z,99.99
2022-11-05T08:17:04.225Z,99.99
2022-11-05T08:18:05.221Z,99.99
2022-11-05T08:19:04.060Z,99.99
2022-11-05T08:20:04.006Z,99.99
2022-11-05T08:21:04.044Z,99.99
2022-11-05T08:22:04.653Z,99.99
2022-11-05T08:23:05.347Z,99.99
2022-11-05T08:24:04.053Z,99.99
2022-11-05T08:25:06.910Z,99.99
2022-11-05T08:26:04.342Z,99.99
2022-11-05T08:27:04.452Z,99.99
2022-11-05T08:28:04.214Z,99.99
2022-11-05T08:29:06.200Z,99.99
2022-11-05T08:30:04.358Z,99.99
2022-11-05T08:31:03.898Z,99.99
2022-11-05T08:32:04.001Z,99.99
2022-11-05T08:33:05.243Z,99.99
2022-11-05T08:34:03.948Z,99.99
2022-11-05T08:35:04.053Z,99.99
2022-11-05T08:36:04.027Z,99.99
2022-11-05T08:37:04.004Z,99.99
2022-11-05T08:38:05.698Z,99.99
2022-11-05T08:39:04.120Z,99.99
2022-11-05T08:40:03.811Z,99.99
2022-11-05T08:41:05.704Z,99.99
2022-11-05T08:42:04.014Z,99.99
2022-11-05T08:43:04.153Z,99.99
2022-11-05T08:44:04.659Z,99.99
2022-11-05T08:45:03.919Z,99.99
2022-11-05T08:46:03.781Z,99.69
2022-11-05T08:47:03.859Z,99.28
2022-11-05T08:48:03.711Z,98.97
2022-11-05T08:49:03.738Z,98.77
2022-11-05T08:50:03.852Z,98.97
2022-11-05T08:51:03.850Z,98.87
2022-11-05T08:52:03.823Z,98.67
2022-11-05T08:53:03.806Z,98.67
2022-11-05T08:54:03.737Z,98.67
2022-11-05T08:55:03.775Z,98.77
2022-11-05T08:56:03.760Z,98.67
2022-11-05T08:57:03.596Z,98.51
2022-11-05T08:58:03.942Z,98.71
2022-11-05T08:59:03.830Z,98.61
2022-11-05T09:00:04.281Z,98.82
2022-11-05T09:01:05.445Z,99.12
2022-11-05T09:02:03.960Z,99.33
2022-11-05T09:03:05.407Z,99.02
2022-11-05T09:04:03.841Z,98.82
2022-11-05T09:05:04.717Z,98.92
2022-11-05T09:06:03.758Z,98.61
2022-11-05T09:07:04.023Z,98.71
2022-11-05T09:08:03.574Z,98.51
2022-11-05T09:09:03.684Z,98.30
2022-11-05T09:10:03.704Z,98.25
2022-11-05T09:11:03.504Z,98.35
2022-11-05T09:12:12.893Z,98.41
2022-11-05T09:13:03.715Z,98.41
2022-11-05T09:14:03.526Z,98.20
2022-11-05T09:15:04.572Z,98.25
2022-11-05T09:16:04.049Z,97.95
2022-11-05T09:17:04.258Z,97.54
2022-11-05T09:18:03.565Z,97.49
2022-11-05T09:19:03.361Z,97.49
2022-11-05T09:20:04.547Z,97.24
2022-11-05T09:21:03.466Z,97.04
2022-11-05T09:22:03.496Z,96.63
2022-11-05T09:23:03.348Z,96.12
2022-11-05T09:24:03.370Z,96.58
2022-11-05T09:25:03.518Z,96.17
2022-11-05T09:26:03.399Z,95.66
2022-11-05T09:27:03.679Z,95.41
2022-11-05T09:28:03.288Z,95.21
2022-11-05T09:29:03.396Z,95.00
2022-11-05T09:30:04.761Z,95.10
2022-11-05T09:31:03.362Z,94.96
2022-11-05T09:32:03.298Z,94.39
2022-11-05T09:33:03.735Z,94.70
2022-11-05T09:34:03.241Z,94.49
2022-11-05T09:35:03.386Z,95.00
2022-11-05T09:36:04.299Z,95.00
2022-11-05T09:37:03.285Z,95.00
2022-11-05T09:38:03.444Z,95.51
2022-11-05T09:39:03.468Z,95.41
2022-11-05T09:40:03.247Z,95.31
2022-11-05T09:41:03.545Z,95.51
2022-11-05T09:42:03.092Z,95.57
2022-11-05T09:43:03.954Z,95.00
2022-11-05T09:44:04.641Z,94.90
2022-11-05T09:45:03.119Z,95.00
2022-11-05T09:46:04.743Z,94.90
2022-11-05T09:47:03.088Z,94.96
2022-11-05T09:48:03.256Z,94.85
2022-11-05T09:49:03.743Z,94.14
2022-11-05T09:50:03.208Z,94.45
2022-11-05T09:51:03.794Z,94.55
2022-11-05T09:52:03.734Z,94.75
2022-11-05T09:53:03.009Z,94.45
2022-11-05T09:54:03.055Z,94.04
2022-11-05T09:55:03.219Z,94.34
2022-11-05T09:56:02.930Z,94.81
2022-11-05T09:57:03.116Z,94.30
2022-11-05T09:58:02.957Z,94.10
2022-11-05T09:59:03.117Z,93.69
2022-11-05T10:00:03.322Z,94.20
2022-11-05T10:01:03.063Z,94.51
2022-11-05T10:02:03.141Z,94.60
2022-11-05T10:03:03.771Z,94.30
2022-11-05T10:04:03.069Z,93.69
2022-11-05T10:05:09.107Z,94.20
2022-11-05T10:06:03.645Z,94.30
2022-11-05T10:07:03.785Z,93.73
2022-11-05T10:08:03.550Z,93.63
2022-11-05T10:09:02.892Z,94.08
2022-11-05T10:10:02.969Z,94.39
2022-11-05T10:11:03.860Z,94.70
2022-11-05T10:12:02.761Z,94.96
2022-11-05T10:13:02.831Z,95.06
2022-11-05T10:14:03.081Z,95.06
2022-11-05T10:15:02.843Z,95.17
2022-11-05T10:16:03.555Z,94.49
2022-11-05T10:17:02.988Z,94.29
2022-11-05T10:18:02.810Z,95.10
2022-11-05T10:19:02.815Z,95.47
2022-11-05T10:20:02.735Z,94.96
2022-11-05T10:21:02.859Z,95.00
2022-11-05T10:22:07.159Z,94.80
2022-11-05T10:23:02.808Z,94.80
2022-11-05T10:24:02.858Z,94.85
2022-11-05T10:25:04.282Z,94.65
2022-11-05T10:26:03.757Z,94.45
2022-11-05T10:27:02.652Z,94.34
2022-11-05T10:28:02.691Z,94.45
2022-11-05T10:29:03.373Z,94.65
2022-11-05T10:30:02.659Z,94.45
2022-11-05T10:31:03.810Z,94.45
2022-11-05T10:32:03.914Z,94.85
2022-11-05T10:33:05.247Z,95.43
2022-11-05T10:34:02.585Z,95.63
2022-11-05T10:35:03.229Z,95.53
2022-11-05T10:36:03.276Z,95.43
2022-11-05T10:37:03.403Z,95.02
2022-11-05T10:38:02.515Z,94.71
2022-11-05T10:39:04.141Z,94.36
2022-11-05T10:40:03.686Z,94.15
2022-11-05T10:41:02.804Z,94.36
2022-11-05T10:42:03.151Z,94.26
2022-11-05T10:43:03.707Z,94.26
2022-11-05T10:44:03.520Z,94.06
2022-11-05T10:45:02.905Z,94.06
2022-11-05T10:46:04.655Z,94.36
2022-11-05T10:47:03.524Z,93.74
2022-11-05T10:48:02.410Z,93.65
2022-11-05T10:49:02.683Z,92.62
2022-11-05T10:50:03.139Z,92.17
2022-11-05T10:51:03.269Z,91.56
2022-11-05T10:52:04.728Z,91.25
2022-11-05T10:53:02.605Z,91.15
2022-11-05T10:54:04.743Z,91.05
2022-11-05T10:55:04.314Z,91.66
2022-11-05T10:56:04.271Z,91.56
2022-11-05T10:57:02.339Z,91.56
2022-11-05T10:58:02.473Z,91.25
2022-11-05T10:59:02.572Z,91.05
2022-11-05T11:00:03.820Z,90.94
2022-11-05T11:01:02.636Z,91.72
2022-11-05T11:02:02.867Z,91.92
2022-11-05T11:03:03.435Z,92.74
2022-11-05T11:04:02.290Z,92.64
2022-11-05T11:05:02.398Z,92.47
2022-11-05T11:06:02.735Z,92.27
2022-11-05T11:07:03.977Z,91.76
2022-11-05T11:08:03.474Z,90.94
2022-11-05T11:09:03.226Z,90.23
2022-11-05T11:10:02.264Z,90.39
2022-11-05T11:11:02.447Z,90.70
2022-11-05T11:12:02.121Z,90.39
2022-11-05T11:13:02.239Z,90.49
2022-11-05T11:14:03.328Z,89.47
2022-11-05T11:15:02.055Z,89.98
2022-11-05T11:16:02.410Z,89.47
2022-11-05T11:17:02.483Z,89.17
2022-11-05T11:18:02.047Z,89.37
2022-11-05T11:19:02.889Z,89.06
2022-11-05T11:20:02.109Z,89.37
2022-11-05T11:21:02.039Z,88.96
2022-11-05T11:22:02.140Z,88.14
2022-11-05T11:23:02.274Z,88.04
2022-11-05T11:24:02.017Z,88.20
2022-11-05T11:25:02.194Z,88.82
2022-11-05T11:26:02.187Z,89.12
2022-11-05T11:27:03.876Z,89.43
2022-11-05T11:28:03.690Z,89.12
2022-11-05T11:29:02.754Z,89.02
2022-11-05T11:30:02.054Z,88.00
2022-11-05T11:31:02.292Z,88.57
2022-11-05T11:32:01.933Z,88.00
2022-11-05T11:33:02.946Z,88.20
2022-11-05T11:34:01.968Z,88.98
2022-11-05T11:35:01.917Z,88.57
2022-11-05T11:36:02.138Z,88.98
2022-11-05T11:37:01.886Z,88.57
2022-11-05T11:38:01.906Z,89.28
2022-11-05T11:39:02.842Z,88.26
2022-11-05T11:40:01.968Z,87.35
2022-11-05T11:41:01.818Z,86.36
2022-11-05T11:42:02.055Z,87.18
2022-11-05T11:43:02.971Z,86.98
2022-11-05T11:44:02.773Z,87.12
2022-11-05T11:45:02.099Z,87.32
2022-11-05T11:46:06.026Z,87.79
2022-11-05T11:47:04.851Z,88.31
2022-11-05T11:48:02.803Z,87.18
2022-11-05T11:49:01.685Z,86.77
2022-11-05T11:50:01.829Z,86.83
2022-11-05T11:51:01.879Z,87.04
2022-11-05T11:52:02.100Z,87.55
2022-11-05T11:53:01.701Z,87.24
2022-11-05T11:54:03.233Z,87.24
2022-11-05T11:55:01.726Z,87.76
2022-11-05T11:56:01.799Z,88.37
2022-11-05T11:57:01.614Z,88.84
2022-11-05T11:58:01.704Z,88.63
2022-11-05T11:59:01.565Z,89.04
2022-11-05T12:00:08.830Z,89.25
2022-11-05T12:01:01.759Z,88.98
2022-11-05T12:02:02.321Z,89.79
2022-11-05T12:03:02.533Z,89.90
2022-11-05T12:04:01.759Z,89.75
2022-11-05T12:05:02.225Z,89.75
2022-11-05T12:06:01.758Z,89.96
2022-11-05T12:07:02.229Z,89.55
2022-11-05T12:08:01.996Z,88.63
2022-11-05T12:09:06.783Z,88.84
2022-11-05T12:10:01.614Z,89.14
2022-11-05T12:11:01.537Z,88.47
2022-11-05T12:12:01.533Z,88.57
2022-11-05T12:13:01.485Z,88.47
2022-11-05T12:14:01.478Z,88.73
2022-11-05T12:15:01.562Z,88.84
2022-11-05T12:16:01.674Z,88.08
2022-11-05T12:17:01.482Z,87.57
2022-11-05T12:18:01.646Z,88.14
2022-11-05T12:19:02.052Z,87.94
2022-11-05T12:20:02.231Z,87.08
2022-11-05T12:21:02.733Z,87.08
2022-11-05T12:22:01.536Z,86.02
2022-11-05T12:23:03.222Z,85.21
2022-11-05T12:24:01.495Z,85.11
2022-11-05T12:25:01.479Z,85.06
2022-11-05T12:26:01.360Z,85.58
2022-11-05T12:27:01.463Z,84.56
2022-11-05T12:28:02.231Z,84.62
2022-11-05T12:30:01.338Z,85.43
2022-11-05T12:31:02.060Z,84.21
2022-11-05T12:32:01.197Z,83.70
2022-11-05T12:33:01.466Z,83.84
2022-11-05T12:34:01.547Z,83.89
2022-11-05T12:35:02.137Z,84.19
2022-11-05T12:36:01.187Z,85.75
2022-11-05T12:37:01.311Z,85.75
2022-11-05T12:38:01.133Z,86.41
2022-11-05T12:39:01.359Z,85.60
2022-11-05T12:40:01.248Z,86.21
2022-11-05T12:41:01.228Z,86.82
2022-11-05T12:42:01.274Z,86.92
2022-11-05T12:43:04.415Z,87.02
2022-11-05T12:44:01.453Z,87.32
2022-11-05T12:45:01.232Z,86.41
2022-11-05T12:46:01.201Z,86.41
2022-11-05T12:47:01.180Z,86.51
2022-11-05T12:48:01.247Z,87.12
2022-11-05T12:49:01.180Z,87.53
2022-11-05T12:50:01.166Z,87.12
2022-11-05T12:51:01.212Z,87.73
2022-11-05T12:52:01.096Z,87.53
2022-11-05T12:53:01.304Z,87.32
2022-11-05T12:54:01.368Z,87.32
2022-11-05T12:55:00.958Z,87.73